Aviation Digital Data Service (ADDS)

Output produced by METARs form (2015 UTC 22 November 2017)
found at http://aviationweather.gov/adds/metars/
 
KSMF 221953Z 34006KT 9SM BKN210 17/16 A3015 RMK AO2 SLP209 T01670156
KSMF 221739Z 2218/2318 34004KT 1/2SM FG BKN002 
     TEMPO 2218/2220 2SM BR BKN250 
     FM222000 VRB04KT 5SM BR BKN250 
     FM222200 VRB04KT P6SM BKN250 
     FM230800 VRB03KT 1/2SM FG OVC002 
     FM231200 VRB03KT 1/4SM FG OVC001